createdAt,value
2022-11-26T00:02:53.807Z,76.95
2022-11-26T00:08:35.121Z,76.82
2022-11-26T00:13:55.770Z,76.59
2022-11-26T00:19:16.770Z,76.97
2022-11-26T00:24:37.912Z,77.21
2022-11-26T00:29:58.968Z,77.16
2022-11-26T00:35:19.985Z,77.39
2022-11-26T00:40:40.894Z,77.30
2022-11-26T00:46:01.729Z,77.22
2022-11-26T00:51:27.535Z,77.52
2022-11-26T00:56:48.491Z,77.77
2022-11-26T01:02:09.376Z,77.38
2022-11-26T01:07:30.435Z,77.88
2022-11-26T01:12:51.735Z,77.65
2022-11-26T01:18:14.133Z,77.82
2022-11-26T01:23:34.804Z,77.81
2022-11-26T01:28:55.760Z,77.61
2022-11-26T01:34:16.780Z,78.21
2022-11-26T01:39:37.530Z,77.98
2022-11-26T01:44:58.299Z,77.97
2022-11-26T01:50:28.291Z,77.51
2022-11-26T01:55:51.309Z,77.38
2022-11-26T02:01:12.324Z,77.73
2022-11-26T02:06:34.084Z,77.64
2022-11-26T02:11:54.586Z,77.94
2022-11-26T02:17:19.180Z,77.92
2022-11-26T02:22:49.202Z,77.62
2022-11-26T02:28:28.381Z,77.39
2022-11-26T02:33:57.113Z,77.17
2022-11-26T02:39:19.705Z,77.68
2022-11-26T02:44:44.640Z,77.94
2022-11-26T02:50:08.617Z,77.56
2022-11-26T02:55:31.673Z,77.31
2022-11-26T03:00:53.303Z,77.52
2022-11-26T03:06:15.031Z,77.09
2022-11-26T03:11:35.783Z,77.11
2022-11-26T03:16:56.759Z,77.45
2022-11-26T03:22:17.637Z,77.14
2022-11-26T03:27:38.438Z,76.86
2022-11-26T03:32:59.098Z,76.88
2022-11-26T03:38:19.964Z,76.83
2022-11-26T03:43:40.642Z,77.18
2022-11-26T03:49:01.360Z,76.78
2022-11-26T03:54:22.556Z,76.96
2022-11-26T03:59:43.217Z,76.75
2022-11-26T04:05:04.514Z,76.72
2022-11-26T04:10:25.330Z,76.94
2022-11-26T04:15:46.273Z,76.80
2022-11-26T04:21:07.926Z,76.80
2022-11-26T04:26:28.690Z,77.07
2022-11-26T04:31:49.730Z,77.19
2022-11-26T04:37:10.382Z,77.20
2022-11-26T04:42:31.209Z,76.83
2022-11-26T04:47:51.972Z,77.45
2022-11-26T04:53:12.927Z,76.84
2022-11-26T04:58:33.437Z,76.91
2022-11-26T05:03:54.393Z,76.96
2022-11-26T05:09:15.201Z,76.85
2022-11-26T05:14:36.389Z,77.26
2022-11-26T05:19:57.354Z,77.28
2022-11-26T05:25:18.125Z,77.05
2022-11-26T05:30:38.782Z,77.15
2022-11-26T05:35:59.904Z,77.18
2022-11-26T05:41:20.690Z,77.16
2022-11-26T05:46:42.532Z,77.15
2022-11-26T05:52:03.269Z,77.51
2022-11-26T05:57:24.097Z,77.78
2022-11-26T06:02:45.242Z,77.96
2022-11-26T06:08:06.064Z,77.21
2022-11-26T06:13:27.012Z,77.23
2022-11-26T06:18:47.962Z,77.43
2022-11-26T06:24:08.412Z,77.46
2022-11-26T06:29:29.514Z,77.42
2022-11-26T06:34:53.935Z,77.66
2022-11-26T06:40:16.901Z,77.69
2022-11-26T06:45:37.719Z,77.72
2022-11-26T06:51:02.624Z,77.82
2022-11-26T06:56:23.672Z,77.82
2022-11-26T07:01:44.876Z,77.80
2022-11-26T07:07:05.872Z,77.94
2022-11-26T07:12:26.738Z,77.88
2022-11-26T07:17:47.724Z,77.75
2022-11-26T07:23:08.640Z,77.68
2022-11-26T07:28:29.888Z,78.22
2022-11-26T07:33:51.859Z,77.92
2022-11-26T07:39:12.615Z,77.54
2022-11-26T07:44:33.180Z,77.97
2022-11-26T07:49:54.016Z,77.89
2022-11-26T07:55:14.608Z,78.14
2022-11-26T08:00:35.448Z,77.94
2022-11-26T08:05:56.095Z,78.13
2022-11-26T08:11:21.563Z,77.92
2022-11-26T08:16:42.446Z,77.99
2022-11-26T08:22:03.180Z,77.97
2022-11-26T08:27:23.767Z,78.03
2022-11-26T08:32:44.353Z,77.97
2022-11-26T08:38:05.117Z,78.55
2022-11-26T08:43:45.087Z,78.61
2022-11-26T08:49:07.134Z,78.15
2022-11-26T08:54:28.124Z,78.08
2022-11-26T08:59:49.084Z,78.15
2022-11-26T09:05:09.651Z,78.04
2022-11-26T09:10:30.500Z,78.22
2022-11-26T09:15:51.524Z,78.01
2022-11-26T09:21:12.520Z,78.43
2022-11-26T09:26:33.922Z,78.67
2022-11-26T09:32:22.090Z,77.93
2022-11-26T09:37:37.818Z,78.06
2022-11-26T09:43:14.775Z,77.65
2022-11-26T09:48:36.356Z,78.18
2022-11-26T09:53:57.736Z,77.77
2022-11-26T09:59:20.247Z,77.76
2022-11-26T10:04:41.778Z,78.16
2022-11-26T10:10:16.507Z,77.99
2022-11-26T10:15:43.120Z,78.30
2022-11-26T10:21:10.749Z,78.07
2022-11-26T10:26:35.590Z,77.68
2022-11-26T10:32:01.994Z,77.66
2022-11-26T10:37:24.608Z,77.78
2022-11-26T10:42:52.212Z,77.66
2022-11-26T10:48:26.796Z,77.83
2022-11-26T10:53:58.073Z,78.19
2022-11-26T10:59:37.897Z,77.73
2022-11-26T11:05:03.578Z,78.14
2022-11-26T11:10:25.488Z,77.67
2022-11-26T11:15:46.346Z,77.81
2022-11-26T11:21:07.488Z,77.72
2022-11-26T11:26:28.456Z,77.67
2022-11-26T11:31:49.351Z,76.58
2022-11-26T11:37:18.790Z,76.59
2022-11-26T11:42:40.604Z,76.26
2022-11-26T11:48:09.602Z,76.86
2022-11-26T11:53:50.673Z,76.19
2022-11-26T11:59:58.055Z,75.93
2022-11-26T12:05:37.427Z,75.99
2022-11-26T12:11:01.288Z,75.69
2022-11-26T12:16:25.058Z,75.59
2022-11-26T12:21:57.384Z,76.23
2022-11-26T12:27:21.295Z,75.71
2022-11-26T12:32:45.657Z,75.70
2022-11-26T12:38:15.320Z,75.80
2022-11-26T12:43:53.199Z,75.51
2022-11-26T12:49:40.308Z,75.69
2022-11-26T12:55:12.990Z,75.68
2022-11-26T13:00:38.071Z,75.49
2022-11-26T13:06:19.214Z,75.74
2022-11-26T13:11:54.109Z,75.49
2022-11-26T13:17:17.107Z,76.25
2022-11-26T13:22:46.941Z,74.72
2022-11-26T13:28:26.498Z,74.63
2022-11-26T13:34:05.936Z,73.83
2022-11-26T13:39:38.998Z,74.13
2022-11-26T13:45:18.739Z,73.91
2022-11-26T13:50:47.215Z,73.66
2022-11-26T13:56:09.307Z,77.75
2022-11-26T14:01:37.153Z,74.30
2022-11-26T14:07:03.873Z,73.79
2022-11-26T14:12:44.589Z,72.99
2022-11-26T14:18:05.542Z,73.67
2022-11-26T14:23:42.884Z,74.23
2022-11-26T14:29:06.220Z,73.90
2022-11-26T14:34:26.961Z,74.02
2022-11-26T14:39:57.613Z,73.58
2022-11-26T14:45:19.555Z,74.16
2022-11-26T14:50:40.387Z,74.04
2022-11-26T14:56:01.768Z,74.24
2022-11-26T15:01:24.157Z,74.04
2022-11-26T15:06:45.629Z,74.21
2022-11-26T15:12:16.304Z,73.73
2022-11-26T15:17:40.707Z,74.60
2022-11-26T15:23:03.675Z,74.45
2022-11-26T15:28:24.501Z,73.84
2022-11-26T15:33:45.617Z,74.16
2022-11-26T15:39:08.029Z,74.16
2022-11-26T15:44:29.730Z,74.07
2022-11-26T15:49:54.928Z,74.08
2022-11-26T15:55:22.340Z,74.21
2022-11-26T16:00:43.798Z,74.19
2022-11-26T16:06:07.363Z,74.13
2022-11-26T16:11:28.906Z,74.14
2022-11-26T16:16:53.158Z,74.07
2022-11-26T16:22:15.644Z,74.27
2022-11-26T16:27:36.298Z,74.50
2022-11-26T16:32:57.171Z,73.85
2022-11-26T16:38:22.393Z,74.48
2022-11-26T16:43:42.810Z,74.50
2022-11-26T16:49:04.333Z,74.05
2022-11-26T16:54:24.745Z,73.85
2022-11-26T16:59:48.630Z,74.02
2022-11-26T17:05:09.641Z,80.69
2022-11-26T17:10:30.432Z,76.22
2022-11-26T17:15:51.794Z,74.29
2022-11-26T17:21:12.708Z,73.92
2022-11-26T17:26:33.272Z,74.17
2022-11-26T17:31:54.053Z,74.12
2022-11-26T17:37:25.926Z,74.22
2022-11-26T17:42:47.330Z,73.90
2022-11-26T17:48:11.176Z,74.91
2022-11-26T17:53:31.827Z,74.04
2022-11-26T17:58:53.007Z,74.63
2022-11-26T18:04:13.633Z,74.27
2022-11-26T18:09:34.894Z,74.48
2022-11-26T18:14:56.816Z,74.20
2022-11-26T18:20:18.958Z,74.16
2022-11-26T18:25:40.920Z,73.83
2022-11-26T18:31:01.980Z,73.59
2022-11-26T18:36:24.842Z,73.48
2022-11-26T18:41:45.427Z,73.86
2022-11-26T18:47:09.312Z,73.56
2022-11-26T18:52:30.134Z,73.84
2022-11-26T18:57:51.689Z,73.67
2022-11-26T19:03:15.994Z,73.45
2022-11-26T19:08:38.973Z,73.35
2022-11-26T19:14:00.272Z,73.47
2022-11-26T19:19:20.944Z,73.30
2022-11-26T19:24:41.614Z,73.35
2022-11-26T19:30:02.275Z,73.41
2022-11-26T19:35:25.440Z,73.37
2022-11-26T19:40:46.077Z,73.34
2022-11-26T19:46:11.223Z,73.57
2022-11-26T19:51:32.057Z,73.51
2022-11-26T19:56:52.676Z,73.67
2022-11-26T20:02:13.556Z,73.70
2022-11-26T20:07:34.613Z,73.24
2022-11-26T20:12:55.556Z,73.49
2022-11-26T20:18:16.834Z,73.54
2022-11-26T20:23:38.089Z,73.50
2022-11-26T20:29:03.551Z,73.76
2022-11-26T20:34:26.298Z,73.76
2022-11-26T20:39:49.461Z,73.92
2022-11-26T20:45:12.048Z,73.85
2022-11-26T20:50:32.540Z,73.84
2022-11-26T20:55:54.198Z,73.68
2022-11-26T21:01:19.644Z,76.02
2022-11-26T21:06:41.905Z,73.73
2022-11-26T21:12:03.092Z,73.63
2022-11-26T21:17:24.132Z,73.25
2022-11-26T21:22:44.878Z,73.21
2022-11-26T21:28:06.360Z,73.45
2022-11-26T21:33:27.365Z,73.72
2022-11-26T21:38:48.859Z,73.47
2022-11-26T21:44:09.556Z,73.35
2022-11-26T21:49:31.355Z,73.40
2022-11-26T21:54:53.825Z,72.97
2022-11-26T22:00:14.980Z,73.00
2022-11-26T22:05:35.896Z,73.39
2022-11-26T22:10:56.745Z,72.98
2022-11-26T22:16:19.863Z,72.99
2022-11-26T22:21:43.779Z,72.84
2022-11-26T22:27:04.500Z,72.89
2022-11-26T22:32:25.405Z,72.91
2022-11-26T22:37:46.279Z,72.74
2022-11-26T22:43:07.317Z,73.00
2022-11-26T22:48:29.014Z,73.28
2022-11-26T22:53:50.513Z,72.42
2022-11-26T22:59:12.395Z,72.25
2022-11-26T23:04:33.138Z,72.13
2022-11-26T23:09:54.077Z,72.24
2022-11-26T23:15:14.914Z,72.58
2022-11-26T23:20:35.862Z,72.26
2022-11-26T23:25:56.674Z,72.54
2022-11-26T23:31:19.900Z,72.17
2022-11-26T23:36:41.469Z,71.93
2022-11-26T23:42:02.036Z,72.42
2022-11-26T23:47:22.744Z,72.53
2022-11-26T23:52:43.722Z,71.96
2022-11-26T23:58:04.593Z,71.88
